Time;durP1;ratioP1;P1;durP2;ratioP2;P2;SDS_P1;SDS_P2;PMS_P1;PMS_P2;Temp;Humidity;BMP_temperature;BMP_pressure;BME280_temperature;BME280_humidity;BME280_pressure;Samples;Min_cycle;Max_cycle;Signal;HPM_P1;HPM_P2
2022/11/22 00:02:14;;;;;;;7.30;2.03;;;;;;;;;;4897676;29;20024;-60
2022/11/22 00:04:40;;;;;;;5.78;2.00;;;;;;;;;;4908814;29;20040;-60
2022/11/22 00:07:05;;;;;;;6.97;2.20;;;;;;;;;;4898633;29;20036;-60
2022/11/22 00:09:30;;;;;;;5.32;1.90;;;;;;;;;;4899195;29;20044;-60
2022/11/22 00:11:56;;;;;;;4.00;1.90;;;;;;;;;;4899065;29;20041;-60
2022/11/22 00:14:22;;;;;;;4.15;1.80;;;;;;;;;;4887220;29;20488;-62
2022/11/22 00:16:47;;;;;;;8.13;2.17;;;;;;;;;;4897499;29;20033;-61
2022/11/22 00:19:12;;;;;;;5.38;2.53;;;;;;;;;;4897208;29;20033;-61
2022/11/22 00:21:38;;;;;;;4.53;1.70;;;;;;;;;;4896241;29;20127;-60
2022/11/22 00:24:04;;;;;;;3.60;1.80;;;;;;;;;;4896721;29;20032;-60
2022/11/22 00:26:29;;;;;;;4.15;1.70;;;;;;;;;;4894052;29;20037;-61
2022/11/22 00:28:55;;;;;;;8.25;1.75;;;;;;;;;;4897786;29;20036;-61
2022/11/22 00:31:20;;;;;;;5.18;1.73;;;;;;;;;;4897117;29;20153;-61
2022/11/22 00:33:45;;;;;;;4.47;2.03;;;;;;;;;;4909123;29;20043;-60
2022/11/22 00:36:11;;;;;;;3.42;1.80;;;;;;;;;;4908303;29;20040;-60
2022/11/22 00:38:36;;;;;;;2.30;1.67;;;;;;;;;;4896602;29;20504;-61
2022/11/22 00:41:02;;;;;;;4.95;1.95;;;;;;;;;;4896840;29;20033;-61
2022/11/22 00:43:27;;;;;;;5.35;1.70;;;;;;;;;;4894879;29;20040;-60
2022/11/22 00:45:52;;;;;;;4.20;1.83;;;;;;;;;;4879879;29;20059;-60
2022/11/22 00:48:18;;;;;;;4.97;1.73;;;;;;;;;;4893235;29;20044;-61
2022/11/22 00:50:43;;;;;;;3.00;1.60;;;;;;;;;;4914101;29;20028;-60
2022/11/22 00:53:09;;;;;;;3.88;1.63;;;;;;;;;;4899469;29;20128;-61
2022/11/22 00:55:34;;;;;;;5.25;1.90;;;;;;;;;;4895161;29;20513;-60
2022/11/22 00:57:59;;;;;;;5.22;1.92;;;;;;;;;;4897288;29;20112;-61
2022/11/22 01:00:25;;;;;;;5.85;1.90;;;;;;;;;;4897703;29;20041;-60
2022/11/22 01:02:50;;;;;;;4.25;1.60;;;;;;;;;;4901486;29;20100;-60
2022/11/22 01:05:16;;;;;;;4.47;1.80;;;;;;;;;;4894805;29;20414;-62
2022/11/22 01:07:43;;;;;;;3.55;1.80;;;;;;;;;;4894278;29;20370;-60
2022/11/22 01:10:09;;;;;;;2.83;1.73;;;;;;;;;;4899841;29;20163;-61
2022/11/22 01:12:35;;;;;;;3.65;1.80;;;;;;;;;;4890437;29;20040;-60
2022/11/22 01:15:01;;;;;;;7.60;2.00;;;;;;;;;;4903864;29;20041;-61
2022/11/22 01:17:26;;;;;;;3.33;1.70;;;;;;;;;;4879785;29;20037;-61
2022/11/22 01:19:52;;;;;;;5.15;1.90;;;;;;;;;;4908128;29;20028;-60
2022/11/22 01:22:17;;;;;;;2.72;1.80;;;;;;;;;;4896283;29;20115;-60
2022/11/22 01:24:43;;;;;;;4.80;1.70;;;;;;;;;;4895865;29;20032;-62
2022/11/22 01:27:08;;;;;;;4.78;2.00;;;;;;;;;;4895814;29;20429;-61
2022/11/22 01:29:33;;;;;;;4.43;1.85;;;;;;;;;;4908721;29;20040;-61
2022/11/22 01:31:59;;;;;;;5.22;1.90;;;;;;;;;;4879060;29;20041;-61
2022/11/22 01:34:24;;;;;;;4.72;1.98;;;;;;;;;;4885779;29;20036;-61
2022/11/22 01:36:50;;;;;;;4.40;1.90;;;;;;;;;;4889232;29;20542;-61
2022/11/22 01:39:16;;;;;;;5.43;2.25;;;;;;;;;;4895793;29;20107;-61
2022/11/22 01:41:41;;;;;;;6.88;2.17;;;;;;;;;;4896757;29;20036;-61
2022/11/22 01:44:30;;;;;;;4.85;2.00;;;;;;;;;;4894621;29;20064;-61
2022/11/22 01:47:16;;;;;;;4.85;2.17;;;;;;;;;;4910910;29;20064;-62
2022/11/22 01:49:58;;;;;;;7.78;2.20;;;;;;;;;;4890885;29;20119;-60
2022/11/22 01:52:27;;;;;;;6.53;2.30;;;;;;;;;;4894125;29;20044;-60
2022/11/22 01:55:04;;;;;;;5.50;2.40;;;;;;;;;;4908144;29;20389;-60
2022/11/22 01:57:34;;;;;;;5.50;2.33;;;;;;;;;;4896020;29;20029;-61
2022/11/22 02:00:08;;;;;;;9.27;3.00;;;;;;;;;;4896463;29;20032;-61
2022/11/22 02:02:34;;;;;;;5.72;2.45;;;;;;;;;;4894410;29;20029;-61
2022/11/22 02:05:07;;;;;;;7.25;2.75;;;;;;;;;;4897358;29;20047;-60
2022/11/22 02:08:00;;;;;;;5.72;2.83;;;;;;;;;;4892513;29;20120;-61
2022/11/22 02:10:28;;;;;;;6.82;2.63;;;;;;;;;;4894675;29;20037;-61
2022/11/22 02:12:58;;;;;;;6.43;2.60;;;;;;;;;;4899561;29;20055;-61
2022/11/22 02:15:24;;;;;;;5.93;2.63;;;;;;;;;;4891705;29;20037;-61
2022/11/22 02:17:49;;;;;;;5.72;2.83;;;;;;;;;;4899964;29;20082;-60
2022/11/22 02:20:16;;;;;;;8.55;2.80;;;;;;;;;;4895990;29;20491;-61
2022/11/22 02:22:53;;;;;;;8.32;3.20;;;;;;;;;;4895893;29;20036;-60
2022/11/22 02:25:35;;;;;;;7.00;2.72;;;;;;;;;;4894574;29;20035;-60
2022/11/22 02:28:00;;;;;;;5.20;2.45;;;;;;;;;;4894948;29;20040;-60
2022/11/22 02:30:26;;;;;;;7.43;2.72;;;;;;;;;;4899834;29;20039;-60
2022/11/22 02:32:51;;;;;;;5.50;2.60;;;;;;;;;;4908814;29;20473;-61
2022/11/22 02:35:23;;;;;;;6.35;2.50;;;;;;;;;;4891320;29;20040;-61
2022/11/22 02:37:53;;;;;;;5.30;2.60;;;;;;;;;;4907516;29;20041;-59
2022/11/22 02:40:19;;;;;;;5.93;2.40;;;;;;;;;;4903143;29;20168;-61
2022/11/22 02:42:50;;;;;;;7.85;2.35;;;;;;;;;;4893710;29;20056;-60
2022/11/22 02:45:15;;;;;;;;;;;;;;;;;;4910559;29;20041;-61
2022/11/22 02:47:41;;;;;;;5.15;2.22;;;;;;;;;;4905767;29;20770;-60
2022/11/22 02:50:07;;;;;;;6.38;2.42;;;;;;;;;;4895198;29;20024;-60
2022/11/22 02:52:32;;;;;;;5.78;2.50;;;;;;;;;;4907913;29;20616;-59
2022/11/22 02:54:57;;;;;;;7.72;2.50;;;;;;;;;;4895251;29;20040;-60
2022/11/22 02:57:23;;;;;;;6.97;2.50;;;;;;;;;;4891122;29;20033;-60
2022/11/22 02:59:48;;;;;;;7.85;2.40;;;;;;;;;;4894049;29;20029;-60
2022/11/22 03:02:14;;;;;;;9.48;3.08;;;;;;;;;;4895580;29;20080;-61
2022/11/22 03:04:39;;;;;;;7.05;2.38;;;;;;;;;;4909376;29;20036;-59
2022/11/22 03:07:04;;;;;;;8.60;2.83;;;;;;;;;;4915235;29;20065;-60
2022/11/22 03:09:30;;;;;;;4.40;2.15;;;;;;;;;;4899748;29;20389;-60
2022/11/22 03:11:56;;;;;;;8.50;2.58;;;;;;;;;;4893761;29;20033;-61
2022/11/22 03:14:22;;;;;;;6.47;2.50;;;;;;;;;;4899897;29;20039;-61
2022/11/22 03:16:48;;;;;;;12.60;2.72;;;;;;;;;;4894364;29;20045;-60
2022/11/22 03:19:13;;;;;;;7.82;1.95;;;;;;;;;;4895098;29;20037;-60
2022/11/22 03:21:40;;;;;;;8.27;2.63;;;;;;;;;;4894046;29;20100;-59
2022/11/22 03:24:07;;;;;;;6.75;2.40;;;;;;;;;;4902149;29;20068;-60
2022/11/22 03:26:33;;;;;;;8.45;2.30;;;;;;;;;;4894466;29;20477;-61
2022/11/22 03:28:58;;;;;;;6.75;2.53;;;;;;;;;;4894539;29;20071;-60
2022/11/22 03:31:23;;;;;;;9.80;2.90;;;;;;;;;;4892354;29;20060;-61
2022/11/22 03:33:49;;;;;;;8.48;2.40;;;;;;;;;;4894632;29;20037;-61
2022/11/22 03:36:15;;;;;;;11.32;2.30;;;;;;;;;;4894535;29;20119;-60
2022/11/22 03:38:40;;;;;;;13.38;2.78;;;;;;;;;;4893679;29;20033;-59
2022/11/22 03:41:05;;;;;;;6.50;2.00;;;;;;;;;;4895380;29;20112;-60
2022/11/22 03:43:31;;;;;;;11.23;2.80;;;;;;;;;;4896766;29;20064;-60
2022/11/22 03:45:56;;;;;;;8.60;2.30;;;;;;;;;;4895235;29;20041;-60
2022/11/22 03:48:22;;;;;;;8.07;2.35;;;;;;;;;;4899150;29;20032;-61
2022/11/22 03:50:47;;;;;;;8.20;2.30;;;;;;;;;;4903448;29;20080;-60
2022/11/22 03:53:13;;;;;;;8.25;2.60;;;;;;;;;;4899396;29;20052;-60
2022/11/22 03:55:39;;;;;;;7.70;2.67;;;;;;;;;;4894632;29;20377;-60
2022/11/22 03:58:05;;;;;;;8.15;2.45;;;;;;;;;;4907893;29;20040;-59
2022/11/22 04:00:31;;;;;;;8.52;2.53;;;;;;;;;;4913891;29;20499;-60
2022/11/22 04:02:57;;;;;;;10.18;2.70;;;;;;;;;;4909601;29;20044;-58
2022/11/22 04:05:22;;;;;;;8.70;2.38;;;;;;;;;;4914161;29;20381;-60
2022/11/22 04:07:48;;;;;;;7.85;2.65;;;;;;;;;;4901289;29;20470;-60
2022/11/22 04:10:13;;;;;;;7.95;2.30;;;;;;;;;;4912229;29;20039;-60
2022/11/22 04:12:38;;;;;;;8.48;2.30;;;;;;;;;;4901915;29;20036;-60
2022/11/22 04:15:07;;;;;;;9.88;2.38;;;;;;;;;;4913316;29;20035;-60
2022/11/22 04:17:44;;;;;;;9.38;2.33;;;;;;;;;;4915817;29;20063;-59
2022/11/22 04:23:06;;;;;;;8.45;2.30;;;;;;;;;;4898935;29;20185;-60
2022/11/22 04:25:34;;;;;;;8.88;2.55;;;;;;;;;;4912523;29;20036;-59
2022/11/22 04:28:00;;;;;;;9.70;2.67;;;;;;;;;;4915672;29;20036;-59
2022/11/22 04:33:13;;;;;;;9.05;2.40;;;;;;;;;;4915083;29;20155;-60
2022/11/22 04:35:39;;;;;;;10.82;2.80;;;;;;;;;;4906113;29;20035;-59
2022/11/22 04:38:05;;;;;;;13.07;2.50;;;;;;;;;;4898718;29;20111;-60
2022/11/22 04:40:31;;;;;;;8.02;2.60;;;;;;;;;;4894968;29;20396;-60
2022/11/22 04:45:57;;;;;;;10.27;2.70;;;;;;;;;;4915087;29;20028;-60
2022/11/22 04:48:23;;;;;;;10.50;2.20;;;;;;;;;;4910018;29;20048;-60
2022/11/22 04:53:32;;;;;;;8.48;2.70;;;;;;;;;;4894253;29;20063;-60
2022/11/22 04:55:57;;;;;;;6.70;2.30;;;;;;;;;;4903194;29;20036;-60
2022/11/22 04:58:23;;;;;;;7.55;2.38;;;;;;;;;;4893714;29;20033;-62
2022/11/22 05:00:49;;;;;;;12.70;2.63;;;;;;;;;;4897722;29;20036;-59
2022/11/22 05:03:15;;;;;;;10.07;2.67;;;;;;;;;;4903733;29;20096;-59
2022/11/22 05:05:43;;;;;;;12.43;2.80;;;;;;;;;;4917287;29;20116;-61
2022/11/22 05:08:09;;;;;;;9.98;2.50;;;;;;;;;;4897426;29;20496;-60
2022/11/22 05:13:21;;;;;;;10.85;2.42;;;;;;;;;;4897594;29;20096;-60
2022/11/22 05:15:47;;;;;;;12.90;2.85;;;;;;;;;;4894319;29;20033;-60
2022/11/22 05:18:13;;;;;;;11.23;3.08;;;;;;;;;;4897919;29;20039;-61
2022/11/22 05:20:38;;;;;;;11.88;2.80;;;;;;;;;;4889616;29;20076;-61
2022/11/22 05:25:49;;;;;;;16.15;2.92;;;;;;;;;;4895746;29;20402;-60
2022/11/22 05:28:17;;;;;;;8.90;2.42;;;;;;;;;;4897934;29;20037;-60
2022/11/22 05:30:42;;;;;;;11.80;3.20;;;;;;;;;;4897257;29;20895;-60
2022/11/22 05:33:07;;;;;;;12.50;2.58;;;;;;;;;;4894107;29;20041;-59
2022/11/22 05:35:33;;;;;;;17.05;3.50;;;;;;;;;;4894435;29;20029;-60
2022/11/22 05:37:59;;;;;;;9.10;2.35;;;;;;;;;;4896366;29;20466;-60
2022/11/22 05:40:25;;;;;;;9.27;2.92;;;;;;;;;;4896413;29;20073;-62
2022/11/22 05:42:50;;;;;;;13.75;2.97;;;;;;;;;;4896367;29;20032;-60
2022/11/22 05:45:16;;;;;;;10.20;2.53;;;;;;;;;;4900866;29;20048;-60
2022/11/22 05:47:42;;;;;;;13.18;2.72;;;;;;;;;;4894931;29;20041;-59
2022/11/22 05:50:08;;;;;;;13.73;3.05;;;;;;;;;;4890098;29;20505;-60
2022/11/22 05:52:33;;;;;;;10.93;2.55;;;;;;;;;;4895828;29;20028;-60
2022/11/22 05:54:59;;;;;;;9.80;2.92;;;;;;;;;;4895829;29;20075;-60
2022/11/22 05:57:25;;;;;;;13.50;2.88;;;;;;;;;;4895251;29;20040;-61
2022/11/22 05:59:50;;;;;;;11.95;2.97;;;;;;;;;;4895664;29;20041;-60
2022/11/22 06:02:16;;;;;;;12.43;2.60;;;;;;;;;;4893835;29;20055;-60
2022/11/22 06:04:41;;;;;;;14.32;3.30;;;;;;;;;;4905380;29;20043;-61
2022/11/22 06:07:07;;;;;;;11.05;2.40;;;;;;;;;;4894329;29;20167;-59
2022/11/22 06:09:32;;;;;;;11.48;2.75;;;;;;;;;;4895629;29;20033;-58
2022/11/22 06:11:58;;;;;;;14.38;2.85;;;;;;;;;;4895261;29;20032;-60
2022/11/22 06:14:23;;;;;;;14.90;3.20;;;;;;;;;;4908479;29;20032;-60
2022/11/22 06:16:50;;;;;;;11.77;3.00;;;;;;;;;;4901800;29;20032;-61
2022/11/22 06:19:16;;;;;;;10.40;2.70;;;;;;;;;;4915182;29;20039;-61
2022/11/22 06:21:41;;;;;;;11.40;2.55;;;;;;;;;;4896489;29;20394;-61
2022/11/22 06:24:07;;;;;;;12.50;2.53;;;;;;;;;;4895294;29;20098;-61
2022/11/22 06:26:33;;;;;;;10.88;2.85;;;;;;;;;;4893970;29;20040;-60
2022/11/22 06:28:58;;;;;;;8.73;3.00;;;;;;;;;;4888141;29;20039;-61
2022/11/22 06:31:25;;;;;;;10.52;2.97;;;;;;;;;;4898155;29;20430;-61
2022/11/22 06:33:56;;;;;;;15.60;3.28;;;;;;;;;;4907033;29;20036;-61
2022/11/22 06:36:24;;;;;;;15.70;2.95;;;;;;;;;;4897323;29;20084;-61
2022/11/22 06:38:49;;;;;;;13.50;3.65;;;;;;;;;;4906464;29;20032;-61
2022/11/22 06:41:20;;;;;;;14.10;3.35;;;;;;;;;;4898440;29;20036;-61
2022/11/22 06:43:48;;;;;;;20.10;3.70;;;;;;;;;;4895816;29;20470;-60
2022/11/22 06:46:13;;;;;;;9.65;3.47;;;;;;;;;;4896491;29;20071;-61
2022/11/22 06:48:40;;;;;;;16.48;3.28;;;;;;;;;;4906126;29;20072;-59
2022/11/22 06:51:09;;;;;;;13.80;3.35;;;;;;;;;;4904109;29;20055;-58
2022/11/22 06:53:35;;;;;;;12.50;3.40;;;;;;;;;;4903440;29;20124;-61
2022/11/22 06:56:08;;;;;;;16.77;4.03;;;;;;;;;;4903497;29;20036;-61
2022/11/22 06:58:34;;;;;;;10.77;3.63;;;;;;;;;;4886319;29;20033;-61
2022/11/22 07:01:01;;;;;;;11.63;3.30;;;;;;;;;;4892414;29;20040;-61
2022/11/22 07:03:27;;;;;;;19.27;4.47;;;;;;;;;;4896147;29;20187;-60
2022/11/22 07:05:53;;;;;;;16.63;4.05;;;;;;;;;;4914661;29;20456;-61
2022/11/22 07:08:18;;;;;;;16.80;4.10;;;;;;;;;;4906082;29;20033;-61
2022/11/22 07:10:44;;;;;;;16.60;3.92;;;;;;;;;;4899106;29;20382;-61
2022/11/22 07:13:09;;;;;;;18.42;3.85;;;;;;;;;;4913958;29;20040;-61
2022/11/22 07:15:35;;;;;;;15.02;3.70;;;;;;;;;;4898762;29;20033;-62
2022/11/22 07:18:00;;;;;;;11.20;3.67;;;;;;;;;;4915182;29;20066;-62
2022/11/22 07:20:26;;;;;;;11.93;3.97;;;;;;;;;;4928867;29;20036;-62
2022/11/22 07:22:51;;;;;;;21.58;3.85;;;;;;;;;;4905259;29;20275;-62
2022/11/22 07:25:16;;;;;;;17.23;4.53;;;;;;;;;;4914354;29;20028;-62
2022/11/22 07:27:42;;;;;;;14.07;4.57;;;;;;;;;;4914073;29;20103;-62
2022/11/22 07:30:08;;;;;;;14.70;4.50;;;;;;;;;;4913186;29;20043;-61
2022/11/22 07:32:33;;;;;;;12.80;3.78;;;;;;;;;;4905038;29;20032;-62
2022/11/22 07:34:59;;;;;;;13.80;4.50;;;;;;;;;;4886760;29;20040;-62
2022/11/22 07:37:24;;;;;;;15.80;4.40;;;;;;;;;;4893374;29;20459;-62
2022/11/22 07:39:50;;;;;;;13.50;3.60;;;;;;;;;;4904788;29;20108;-62
2022/11/22 07:42:15;;;;;;;20.13;4.32;;;;;;;;;;4894890;29;20112;-63
2022/11/22 07:44:40;;;;;;;14.05;3.75;;;;;;;;;;4908736;29;20085;-62
2022/11/22 07:47:06;;;;;;;19.33;3.78;;;;;;;;;;4917143;29;20029;-61
2022/11/22 07:49:31;;;;;;;11.27;3.72;;;;;;;;;;4914513;29;20042;-61
2022/11/22 07:51:58;;;;;;;12.15;3.78;;;;;;;;;;4897508;29;20044;-62
2022/11/22 07:54:23;;;;;;;12.25;3.80;;;;;;;;;;4899154;29;20382;-62
2022/11/22 07:56:49;;;;;;;11.50;3.80;;;;;;;;;;4898450;29;20033;-61
2022/11/22 07:59:14;;;;;;;15.82;3.70;;;;;;;;;;4918177;29;20032;-62
2022/11/22 08:01:39;;;;;;;14.57;3.70;;;;;;;;;;4915836;29;20485;-61
2022/11/22 08:04:05;;;;;;;12.40;3.53;;;;;;;;;;4912896;29;20100;-61
2022/11/22 08:06:30;;;;;;;17.65;3.70;;;;;;;;;;4899996;29;20041;-61
2022/11/22 08:08:56;;;;;;;11.15;3.60;;;;;;;;;;4899173;29;20096;-59
2022/11/22 08:11:21;;;;;;;17.77;3.90;;;;;;;;;;4897621;29;20120;-63
2022/11/22 08:13:46;;;;;;;10.63;3.80;;;;;;;;;;4913693;29;20396;-60
2022/11/22 08:16:15;;;;;;;15.90;3.72;;;;;;;;;;4916932;29;20060;-60
2022/11/22 08:18:44;;;;;;;11.50;3.20;;;;;;;;;;4916260;29;20028;-60
2022/11/22 08:21:12;;;;;;;10.77;3.28;;;;;;;;;;4917321;29;20477;-58
2022/11/22 08:23:39;;;;;;;10.25;3.47;;;;;;;;;;4913882;29;20052;-59
2022/11/22 08:26:06;;;;;;;9.27;2.75;;;;;;;;;;4917961;29;20037;-62
2022/11/22 08:28:32;;;;;;;5.18;1.90;;;;;;;;;;4913175;29;20036;-61
2022/11/22 08:31:03;;;;;;;12.23;2.38;;;;;;;;;;4916628;29;20040;-61
2022/11/22 08:33:28;;;;;;;13.35;2.35;;;;;;;;;;4913390;29;20038;-62
2022/11/22 08:35:54;;;;;;;12.60;2.30;;;;;;;;;;4898450;29;20127;-62
2022/11/22 08:38:19;;;;;;;10.20;2.42;;;;;;;;;;4898507;29;20393;-61
2022/11/22 08:40:45;;;;;;;9.82;1.75;;;;;;;;;;4896836;29;20115;-61
2022/11/22 08:43:10;;;;;;;10.68;2.70;;;;;;;;;;4907080;29;20036;-61
2022/11/22 08:45:36;;;;;;;16.25;2.20;;;;;;;;;;4903918;29;20449;-62
2022/11/22 08:48:02;;;;;;;14.32;2.55;;;;;;;;;;4910912;29;20528;-61
2022/11/22 08:50:27;;;;;;;11.10;2.25;;;;;;;;;;4906214;29;20037;-62
2022/11/22 08:52:53;;;;;;;7.53;1.90;;;;;;;;;;4897824;29;20053;-61
2022/11/22 08:55:19;;;;;;;6.40;1.75;;;;;;;;;;4912781;29;20067;-62
2022/11/22 08:57:44;;;;;;;7.32;1.83;;;;;;;;;;4909048;29;20034;-61
2022/11/22 09:00:10;;;;;;;11.30;2.10;;;;;;;;;;4917272;29;20050;-62
2022/11/22 09:02:36;;;;;;;8.48;1.88;;;;;;;;;;4914535;29;20040;-62
2022/11/22 09:05:01;;;;;;;8.10;2.20;;;;;;;;;;4906103;29;20032;-59
2022/11/22 09:07:28;;;;;;;9.05;2.33;;;;;;;;;;4899495;29;20044;-62
2022/11/22 09:09:53;;;;;;;5.90;1.70;;;;;;;;;;4911503;29;20040;-62
2022/11/22 09:12:19;;;;;;;9.82;1.88;;;;;;;;;;4895463;29;20045;-59
2022/11/22 09:14:46;;;;;;;7.70;2.03;;;;;;;;;;4904526;29;20032;-60
2022/11/22 09:17:12;;;;;;;8.13;1.98;;;;;;;;;;4905444;29;20047;-57
2022/11/22 09:19:37;;;;;;;5.15;1.92;;;;;;;;;;4913128;29;20032;-62
2022/11/22 09:22:02;;;;;;;6.88;1.92;;;;;;;;;;4907917;29;20040;-61
2022/11/22 09:24:28;;;;;;;9.23;2.35;;;;;;;;;;4909281;29;20037;-62
2022/11/22 09:26:53;;;;;;;7.55;1.85;;;;;;;;;;4910041;29;20103;-61
2022/11/22 09:29:18;;;;;;;11.30;1.92;;;;;;;;;;4915676;29;20027;-61
2022/11/22 09:31:44;;;;;;;4.97;1.83;;;;;;;;;;4899574;29;20147;-61
2022/11/22 09:34:09;;;;;;;7.68;2.05;;;;;;;;;;4913609;29;20084;-61
2022/11/22 09:36:35;;;;;;;9.65;1.70;;;;;;;;;;4904749;29;20039;-56
2022/11/22 09:39:00;;;;;;;8.60;2.03;;;;;;;;;;4903849;29;20028;-55
2022/11/22 09:41:44;;;;;;;8.20;1.80;;;;;;;;;;4909607;29;20079;-58
2022/11/22 09:44:25;;;;;;;7.68;1.48;;;;;;;;;;4916368;29;20031;-58
2022/11/22 09:46:55;;;;;;;9.20;1.90;;;;;;;;;;4897196;29;20044;-56
2022/11/22 09:49:23;;;;;;;4.47;1.50;;;;;;;;;;4910190;29;20036;-58
2022/11/22 09:52:06;;;;;;;4.75;1.67;;;;;;;;;;4896412;29;20942;-57
2022/11/22 09:54:45;;;;;;;4.45;1.90;;;;;;;;;;4927682;29;20135;-56
2022/11/22 09:57:20;;;;;;;6.88;1.45;;;;;;;;;;4909535;29;20024;-58
2022/11/22 09:59:50;;;;;;;8.52;1.52;;;;;;;;;;4879359;29;20379;-58
2022/11/22 10:02:35;;;;;;;6.05;1.65;;;;;;;;;;4916047;29;20469;-56
2022/11/22 10:05:11;;;;;;;6.18;1.55;;;;;;;;;;4900058;29;20481;-66
2022/11/22 10:07:41;;;;;;;8.65;1.70;;;;;;;;;;4879246;29;20485;-60
2022/11/22 10:10:12;;;;;;;6.70;1.70;;;;;;;;;;4897682;29;20037;-60
2022/11/22 10:12:58;;;;;;;5.18;1.60;;;;;;;;;;4915226;29;20107;-62
2022/11/22 10:15:26;;;;;;;4.68;1.30;;;;;;;;;;4899972;29;20040;-60
2022/11/22 10:17:55;;;;;;;7.50;1.70;;;;;;;;;;4915226;29;20098;-61
2022/11/22 10:20:26;;;;;;;3.42;1.27;;;;;;;;;;4891495;29;20040;-61
2022/11/22 10:22:51;;;;;;;;;;;;;;;;;;4895645;29;20607;-61
2022/11/22 10:25:26;;;;;;;3.22;1.33;;;;;;;;;;4909543;29;20010;-60
2022/11/22 10:27:57;;;;;;;5.30;1.70;;;;;;;;;;4894335;29;20028;-61
2022/11/22 10:30:24;;;;;;;5.75;1.50;;;;;;;;;;4915440;29;20036;-62
2022/11/22 10:33:03;;;;;;;4.28;1.33;;;;;;;;;;4913278;29;20044;-62
2022/11/22 10:35:49;;;;;;;6.00;1.48;;;;;;;;;;4890511;29;20048;-60
2022/11/22 10:38:52;;;;;;;4.32;1.50;;;;;;;;;;4892944;29;20339;-61
2022/11/22 10:41:29;;;;;;;4.00;1.15;;;;;;;;;;4895260;29;20116;-61
2022/11/22 10:44:06;;;;;;;8.60;1.60;;;;;;;;;;4903041;29;20050;-61
2022/11/22 10:47:13;;;;;;;4.85;1.45;;;;;;;;;;4929663;29;20032;-62
2022/11/22 10:49:51;;;;;;;4.82;1.45;;;;;;;;;;4895320;29;20043;-62
2022/11/22 10:52:25;;;;;;;5.25;1.52;;;;;;;;;;4915367;29;20461;-61
2022/11/22 10:55:08;;;;;;;7.53;1.60;;;;;;;;;;4907872;29;20124;-61
2022/11/22 10:58:18;;;;;;;8.15;1.40;;;;;;;;;;4895172;29;20128;-62
2022/11/22 11:00:48;;;;;;;7.20;1.50;;;;;;;;;;4873596;29;20052;-62
2022/11/22 11:03:35;;;;;;;6.57;1.85;;;;;;;;;;4873725;29;20029;-61
2022/11/22 11:06:10;;;;;;;6.82;1.55;;;;;;;;;;4877886;29;20056;-61
2022/11/22 11:08:43;;;;;;;3.45;1.30;;;;;;;;;;4907742;29;20028;-61
2022/11/22 11:11:08;;;;;;;5.85;1.40;;;;;;;;;;4896280;29;20509;-60
2022/11/22 11:13:38;;;;;;;6.25;1.73;;;;;;;;;;4890874;29;20070;-59
2022/11/22 11:16:09;;;;;;;3.67;1.47;;;;;;;;;;4892372;29;20173;-62
2022/11/22 11:18:42;;;;;;;;;;;;;;;;;;4901745;29;20058;-61
2022/11/22 11:21:11;;;;;;;5.10;1.35;;;;;;;;;;4915017;29;20395;-61
2022/11/22 11:23:36;;;;;;;7.25;1.70;;;;;;;;;;4913135;29;20035;-62
2022/11/22 11:26:29;;;;;;;3.53;1.38;;;;;;;;;;4918101;29;20461;-62
2022/11/22 11:29:16;;;;;;;5.28;1.70;;;;;;;;;;4906844;29;20059;-58
2022/11/22 11:31:43;;;;;;;11.60;2.08;;;;;;;;;;4884415;29;20116;-58
2022/11/22 11:34:28;;;;;;;4.35;1.60;;;;;;;;;;4906104;29;20064;-60
2022/11/22 11:36:56;;;;;;;7.88;1.63;;;;;;;;;;4899173;29;20036;-59
2022/11/22 11:39:28;;;;;;;6.45;1.40;;;;;;;;;;4925329;29;20544;-60
2022/11/22 11:41:54;;;;;;;4.63;1.70;;;;;;;;;;4910627;29;20088;-61
2022/11/22 11:44:30;;;;;;;5.00;1.70;;;;;;;;;;4897599;29;20109;-60
2022/11/22 11:46:57;;;;;;;5.22;1.48;;;;;;;;;;4891556;29;20041;-59
2022/11/22 11:49:28;;;;;;;3.38;1.40;;;;;;;;;;4909055;29;20052;-58
2022/11/22 11:52:03;;;;;;;5.50;1.58;;;;;;;;;;4917101;29;20040;-61
2022/11/22 11:54:37;;;;;;;5.20;1.40;;;;;;;;;;4915593;29;20050;-60
2022/11/22 11:57:04;;;;;;;2.88;1.25;;;;;;;;;;4914501;29;20040;-60
2022/11/22 11:59:39;;;;;;;3.25;1.58;;;;;;;;;;4917959;29;20044;-60
2022/11/22 12:02:20;;;;;;;3.58;1.55;;;;;;;;;;4911978;29;20430;-61
2022/11/22 12:04:55;;;;;;;5.45;1.52;;;;;;;;;;4904661;29;20040;-61
2022/11/22 12:07:26;;;;;;;4.85;1.55;;;;;;;;;;4914107;29;20047;-61
2022/11/22 12:09:54;;;;;;;7.68;2.60;;;;;;;;;;4880014;29;20055;-61
2022/11/22 12:12:34;;;;;;;3.22;1.00;;;;;;;;;;4891474;29;20036;-60
2022/11/22 12:15:25;;;;;;;4.30;1.30;;;;;;;;;;4916585;29;20044;-60
2022/11/22 12:18:13;;;;;;;4.47;1.60;;;;;;;;;;4901351;29;20615;-61
2022/11/22 12:20:51;;;;;;;3.35;1.20;;;;;;;;;;4900206;29;20036;-57
2022/11/22 12:23:36;;;;;;;4.75;1.40;;;;;;;;;;4915932;29;20048;-61
2022/11/22 12:26:01;;;;;;;2.08;1.08;;;;;;;;;;4904683;29;20470;-60
2022/11/22 12:28:28;;;;;;;4.72;1.33;;;;;;;;;;4898696;29;20043;-62
2022/11/22 12:31:25;;;;;;;2.70;1.20;;;;;;;;;;4907403;29;20043;-62
2022/11/22 12:34:06;;;;;;;4.30;1.20;;;;;;;;;;4901520;29;20036;-61
2022/11/22 12:36:37;;;;;;;;;;;;;;;;;;4909598;29;20102;-62
2022/11/22 12:39:03;;;;;;;2.67;1.23;;;;;;;;;;4890638;29;19923;-60
2022/11/22 12:41:31;;;;;;;3.65;1.30;;;;;;;;;;4895775;29;20060;-61
2022/11/22 12:44:00;;;;;;;4.05;1.25;;;;;;;;;;4897382;29;20093;-60
2022/11/22 12:46:38;;;;;;;3.92;1.20;;;;;;;;;;4897291;29;20513;-62
2022/11/22 12:49:12;;;;;;;3.40;1.13;;;;;;;;;;4897879;29;20045;-61
2022/11/22 12:51:49;;;;;;;4.85;1.20;;;;;;;;;;4895492;29;20085;-61
2022/11/22 12:54:33;;;;;;;2.03;1.00;;;;;;;;;;4901714;29;20080;-62
2022/11/22 12:57:06;;;;;;;3.95;1.30;;;;;;;;;;4910045;29;20043;-62
2022/11/22 12:59:41;;;;;;;4.88;1.40;;;;;;;;;;4896847;29;20028;-63
2022/11/22 13:02:26;;;;;;;3.33;1.15;;;;;;;;;;4920467;29;20037;-61
2022/11/22 13:05:04;;;;;;;2.20;0.80;;;;;;;;;;4908575;29;20024;-61
2022/11/22 13:07:57;;;;;;;2.05;1.10;;;;;;;;;;4906231;29;20112;-61
2022/11/22 13:10:48;;;;;;;3.22;1.10;;;;;;;;;;4894604;29;20501;-61
2022/11/22 13:13:31;;;;;;;3.42;1.10;;;;;;;;;;4896198;29;20054;-62
2022/11/22 13:16:00;;;;;;;2.78;1.10;;;;;;;;;;4895474;29;20036;-62
2022/11/22 13:18:38;;;;;;;2.25;1.00;;;;;;;;;;4898257;29;20036;-63
2022/11/22 13:21:35;;;;;;;3.40;1.40;;;;;;;;;;4914950;29;20039;-61
2022/11/22 13:24:06;;;;;;;0.60;0.57;;;;;;;;;;4902705;29;20091;-62
2022/11/22 13:27:00;;;;;;;2.72;1.05;;;;;;;;;;4895048;29;20040;-62
2022/11/22 13:29:31;;;;;;;1.05;0.75;;;;;;;;;;4893801;29;20440;-62
2022/11/22 13:32:12;;;;;;;1.90;1.00;;;;;;;;;;4892101;29;20037;-62
2022/11/22 13:34:58;;;;;;;1.67;0.90;;;;;;;;;;4879329;29;20033;-62
2022/11/22 13:37:25;;;;;;;2.58;1.50;;;;;;;;;;4895747;29;20048;-63
2022/11/22 13:39:51;;;;;;;1.60;1.20;;;;;;;;;;4895946;29;20029;-62
2022/11/22 13:42:18;;;;;;;2.65;1.00;;;;;;;;;;4894946;29;20058;-62
2022/11/22 13:45:11;;;;;;;2.80;1.33;;;;;;;;;;4892746;29;20040;-62
2022/11/22 13:47:36;;;;;;;2.03;1.00;;;;;;;;;;4894275;29;20044;-62
2022/11/22 13:50:39;;;;;;;3.00;1.17;;;;;;;;;;4897668;29;20111;-64
2022/11/22 13:53:26;;;;;;;1.10;0.88;;;;;;;;;;4895320;29;20131;-61
2022/11/22 13:55:51;;;;;;;1.15;0.90;;;;;;;;;;4898416;29;20109;-61
2022/11/22 13:58:23;;;;;;;3.40;1.20;;;;;;;;;;4910336;29;20056;-60
2022/11/22 14:00:49;;;;;;;3.70;1.10;;;;;;;;;;4890967;29;20396;-62
2022/11/22 14:03:14;;;;;;;2.47;1.30;;;;;;;;;;4892468;29;20040;-61
2022/11/22 14:05:46;;;;;;;5.45;1.30;;;;;;;;;;4912365;29;20044;-62
2022/11/22 14:08:32;;;;;;;2.15;1.17;;;;;;;;;;4904780;29;20465;-60
2022/11/22 14:11:00;;;;;;;2.28;1.20;;;;;;;;;;4914386;29;20083;-62
2022/11/22 14:13:36;;;;;;;3.25;1.30;;;;;;;;;;4914412;29;20111;-60
2022/11/22 14:16:10;;;;;;;3.75;1.45;;;;;;;;;;4914905;29;20087;-60
2022/11/22 14:19:09;;;;;;;3.80;1.33;;;;;;;;;;4904504;29;20131;-61
2022/11/22 14:22:05;;;;;;;4.68;1.63;;;;;;;;;;4907916;29;20108;-61
2022/11/22 14:24:48;;;;;;;3.33;1.40;;;;;;;;;;4911838;29;20071;-62
2022/11/22 14:27:41;;;;;;;2.78;1.20;;;;;;;;;;4912446;29;20041;-62
2022/11/22 14:30:21;;;;;;;2.78;1.42;;;;;;;;;;4878645;29;20100;-61
2022/11/22 14:32:50;;;;;;;2.53;1.30;;;;;;;;;;4896074;29;20441;-63
2022/11/22 14:35:20;;;;;;;2.45;1.10;;;;;;;;;;4914612;29;20441;-63
2022/11/22 14:38:22;;;;;;;3.15;1.08;;;;;;;;;;4889610;29;20036;-61
2022/11/22 14:40:47;;;;;;;3.08;0.88;;;;;;;;;;4914270;29;20110;-62
2022/11/22 14:43:26;;;;;;;2.28;1.02;;;;;;;;;;4909893;29;20505;-61
2022/11/22 14:45:59;;;;;;;2.90;1.40;;;;;;;;;;4895104;29;20092;-61
2022/11/22 14:48:34;;;;;;;4.93;1.70;;;;;;;;;;4894841;29;20100;-62
2022/11/22 14:51:02;;;;;;;4.90;1.63;;;;;;;;;;4908755;29;20037;-61
2022/11/22 14:53:39;;;;;;;2.50;1.17;;;;;;;;;;4903020;29;20052;-60
2022/11/22 14:56:19;;;;;;;2.75;1.00;;;;;;;;;;4892877;29;20121;-63
2022/11/22 14:58:55;;;;;;;3.28;1.35;;;;;;;;;;4900976;29;20071;-62
2022/11/22 15:01:56;;;;;;;4.90;1.42;;;;;;;;;;4895323;29;20059;-62
2022/11/22 15:04:39;;;;;;;5.63;1.40;;;;;;;;;;4900159;29;20045;-64
2022/11/22 15:07:26;;;;;;;3.25;1.30;;;;;;;;;;4887043;29;20119;-62
2022/11/22 15:10:13;;;;;;;2.67;1.27;;;;;;;;;;4905552;29;20099;-63
2022/11/22 15:13:03;;;;;;;2.53;1.20;;;;;;;;;;4908619;29;20047;-63
2022/11/22 15:15:31;;;;;;;3.63;1.27;;;;;;;;;;4907369;29;20035;-62
2022/11/22 15:18:06;;;;;;;3.20;1.10;;;;;;;;;;4913133;29;20067;-63